M I D A S
Marine Information and Data Acquisition System
Tripno 455 of the Zeeleeuw from 2003-03-25 09:09:30 to 2003-03-25 17:48:48
Back to CruiseResearch ActivitiesStationsMapUnderway DataData graphs

EquipmentUnitsComment
TimeDGPSUTC
LatitudeDGPSDM.mWGS84
LongitudeDGPSDM.mWGS84
HeadingGyrodeg 
SOGDGPSknotsSpeed over ground
COGDGPSdegCourse over ground
DepthEcho soundermeters200 kHz
Missing or incorrect values are displayed as -999
Navigation data collected by the RV Zeeleeuw from 2003-03-25 09:09:30 to 2003-03-25 17:48:48
                                                                                    Next 1000 lines
Time Latitude Longitude Heading SOG COG Depth
2003-03-25 09:09:39 51°13.601 2°56.103 126.2 0.1 93 7.9
2003-03-25 09:09:43 51°13.601 2°56.103 125.1   130 7.9
2003-03-25 09:09:49 51°13.601 2°56.103 124.5   167 5.8
2003-03-25 09:09:53 51°13.601 2°56.102 123.6 0.1 197 7.9
2003-03-25 09:09:59 51°13.601 2°56.103 122.7 0.1 199 7.9
2003-03-25 09:10:03 51°13.601 2°56.102 121.7 0.1 208 8
2003-03-25 09:10:09 51°13.601 2°56.102 120.7 0.1 211 8
2003-03-25 09:10:13 51°13.601 2°56.102 120 0.1 208 8
2003-03-25 09:10:18 51°13.601 2°56.102 119 0.1 217 8
2003-03-25 09:10:24 51°13.601 2°56.102 118.2 0.1 184 8
2003-03-25 09:10:29 51°13.601 2°56.102 117.4 0.1 179 8
2003-03-25 09:10:35 51°13.6 2°56.102 116.8 0.1 204 8
2003-03-25 09:10:39 51°13.6 2°56.102 116 0.1 221 8
2003-03-25 09:10:43 51°13.6 2°56.102 115.5 0.1 223 8
2003-03-25 09:10:49 51°13.601 2°56.101 115.3 0.2 280 8.1
2003-03-25 09:10:52 51°13.601 2°56.101 115.2 0.4 295 8.1
2003-03-25 09:10:59 51°13.602 2°56.099 115 0.7 294 8.1
2003-03-25 09:11:04 51°13.602 2°56.096 114.9 1 296 8.1
2003-03-25 09:11:09 51°13.603 2°56.093 115 1.3 296 8.1
2003-03-25 09:11:13 51°13.604 2°56.091 115.1 1.7 296 -999
2003-03-25 09:11:20 51°13.606 2°56.085 115.3 2 296 -999
2003-03-25 09:11:25 51°13.607 2°56.08 115.3 2.2 297 -999
2003-03-25 09:11:30 51°13.609 2°56.075 115.4 2.5 297 -999
2003-03-25 09:11:35 51°13.611 2°56.07 115.4 2.7 296 -999
2003-03-25 09:11:40 51°13.612 2°56.064 115.2 2.9 296 -999
2003-03-25 09:11:45 51°13.614 2°56.057 114.9 3.1 295 -999
2003-03-25 09:11:50 51°13.616 2°56.051 114.7 3.2 294 -999
2003-03-25 09:11:55 51°13.618 2°56.044 114.7 3.3 294 -999
2003-03-25 09:12:00 51°13.62 2°56.037 114.7 3.4 293 -999
2003-03-25 09:12:05 51°13.622 2°56.03 114.9 3.4 293 -999
2003-03-25 09:12:10 51°13.623 2°56.023 115 3.5 293 -999
2003-03-25 09:12:15 51°13.625 2°56.016 115.3 3.5 293 -999
2003-03-25 09:12:20 51°13.627 2°56.008 115.3 3.6 293 -999
2003-03-25 09:12:25 51°13.629 2°56.001 115.1 3.8 293 -999
2003-03-25 09:12:30 51°13.632 2°55.993 114.8 3.9 293 -999
2003-03-25 09:12:35 51°13.634 2°55.985 114.7 4 294 -999
2003-03-25 09:12:40 51°13.636 2°55.976 114.6 4.1 293 -999
2003-03-25 09:12:45 51°13.638 2°55.968 114.5 4.1 293 -999
2003-03-25 09:12:49 51°13.64 2°55.961 114.3 4.1 292 -999
2003-03-25 09:12:55 51°13.642 2°55.951 114.2 4.2 292 -999
2003-03-25 09:13:00 51°13.645 2°55.942 114.1 4.2 292 -999
2003-03-25 09:13:05 51°13.647 2°55.933 113.9 4.3 292 -999
2003-03-25 09:13:10 51°13.649 2°55.924 113.8 4.3 292 -999
2003-03-25 09:13:15 51°13.651 2°55.915 113.4 4.4 292 -999
2003-03-25 09:13:20 51°13.653 2°55.906 112.7 4.4 291 -999
2003-03-25 09:13:25 51°13.656 2°55.897 111.9 4.4 291 -999
2003-03-25 09:13:30 51°13.658 2°55.887 111 4.4 291 -999
2003-03-25 09:13:35 51°13.66 2°55.879 110.1 4.3 290 -999
2003-03-25 09:13:40 51°13.662 2°55.87 109 4.3 289 -999
2003-03-25 09:13:45 51°13.663 2°55.862 107.9 4.2 289 -999
2003-03-25 09:13:50 51°13.665 2°55.854 106.9 4.1 288 -999
2003-03-25 09:13:55 51°13.666 2°55.845 106.1 4.1 287 -999
2003-03-25 09:14:00 51°13.668 2°55.837 105.2 4 286 -999
2003-03-25 09:14:05 51°13.669 2°55.828 104.3 4 286 -999
2003-03-25 09:14:09 51°13.67 2°55.821 103.4 3.9 285 -999
2003-03-25 09:14:15 51°13.672 2°55.81 101.9 3.8 284 -999
2003-03-25 09:14:20 51°13.673 2°55.802 99.1 3.7 283 -999
2003-03-25 09:14:25 51°13.674 2°55.794 95.2 3.6 282 5.1
2003-03-25 09:14:29 51°13.674 2°55.788 91.9 3.5 279 9.5
2003-03-25 09:14:33 51°13.674 2°55.783 89.1 3.2 273 9.8
2003-03-25 09:14:39 51°13.674 2°55.775 87.1 3.1 270 7.7
2003-03-25 09:14:43 51°13.674 2°55.77 86.5 2.9 266 9.4
2003-03-25 09:14:49 51°13.673 2°55.763 86.5 2.8 265 8.8
2003-03-25 09:14:53 51°13.673 2°55.758 86.6 2.5 264 9.1
2003-03-25 09:14:59 51°13.673 2°55.752 86.3 2.2 264 9.8
2003-03-25 09:15:03 51°13.673 2°55.75 85.5 1.8 264 10.2
2003-03-25 09:15:09 51°13.673 2°55.748 84.1 1.5 264 9.7
2003-03-25 09:15:13 51°13.673 2°55.747 82.2 1 265 9.8
2003-03-25 09:15:19 51°13.673 2°55.746 79.6 0.8 265 9.5
2003-03-25 09:15:23 51°13.672 2°55.745 76.7 0.4 272 9.8
2003-03-25 09:15:29 51°13.672 2°55.745 73.3 0.1 316 9.8
2003-03-25 09:15:33 51°13.673 2°55.746 69 0.4 47 9.7
2003-03-25 09:15:39 51°13.674 2°55.747 64 0.7 54 10.6
2003-03-25 09:15:43 51°13.674 2°55.748 58.9 1 51 10.9
2003-03-25 09:15:49 51°13.676 2°55.75 53.7 1.2 46 11.1
2003-03-25 09:15:53 51°13.677 2°55.752 48.7 1.5 43 11.2
2003-03-25 09:15:58 51°13.679 2°55.754 43.9 1.7 41 8.8
2003-03-25 09:16:04 51°13.682 2°55.758 38.9 2 37 8.6
2003-03-25 09:16:09 51°13.685 2°55.761 34.1 2.2 33 8.8
2003-03-25 09:16:13 51°13.687 2°55.763 29 2.5 28 7.7
2003-03-25 09:16:19 51°13.692 2°55.766 23.9 2.6 24 7.7
2003-03-25 09:16:24 51°13.695 2°55.767 18.6 2.7 19 7.2
2003-03-25 09:16:29 51°13.699 2°55.768 12.3 2.8 11 5.4
2003-03-25 09:16:33 51°13.702 2°55.768 5.2 2.8 1 11.1
2003-03-25 09:16:39 51°13.707 2°55.766 357.3 2.9 353 10.8
2003-03-25 09:16:44 51°13.712 2°55.763 349.1 3.1 343 10.9
2003-03-25 09:16:49 51°13.716 2°55.759 341.3 3.1 337 9.3
2003-03-25 09:16:53 51°13.719 2°55.756 334.5 3.2 329 10.8
2003-03-25 09:16:59 51°13.723 2°55.75 329.6 3.3 324 11
2003-03-25 09:17:03 51°13.726 2°55.746 326.8 3.5 320 9.2
2003-03-25 09:17:09 51°13.731 2°55.739 326 3.8 319 10.1
2003-03-25 09:17:13 51°13.734 2°55.734 327.1 4.2 318 -999
2003-03-25 09:17:18 51°13.739 2°55.727 328.1 4.5 320 8.6
2003-03-25 09:17:23 51°13.743 2°55.72 328.1 4.9 320 9.4
2003-03-25 09:17:29 51°13.75 2°55.712 327.8 5.2 320 9.8
2003-03-25 09:17:33 51°13.755 2°55.706 327.6 5.5 320 9.6
2003-03-25 09:17:39 51°13.763 2°55.697 327.9 5.8 320 9.7
2003-03-25 09:17:44 51°13.77 2°55.689 328.9 6 321 10
2003-03-25 09:17:49 51°13.777 2°55.681 331.2 6.2 323 10.2
2003-03-25 09:17:54 51°13.784 2°55.673 334.1 6.4 327 10.2
2003-03-25 09:17:59 51°13.792 2°55.666 336.7 6.5 329 10.2
2003-03-25 09:18:01 51°13.795 2°55.664 338.4 6.6 332 10.2
2003-03-25 09:18:09 51°13.809 2°55.653 339.1 6.8 333 10.2
2003-03-25 09:18:13 51°13.816 2°55.648 339 7 333 10.1
2003-03-25 09:18:19 51°13.827 2°55.64 338.6 7.2 334 10.2
2003-03-25 09:18:23 51°13.834 2°55.635 338.3 7.4 334 10.1
2003-03-25 09:18:29 51°13.845 2°55.628 338.3 7.5 334 10.1
2003-03-25 09:18:33 51°13.853 2°55.623 338.5 7.6 334 10.1
2003-03-25 09:18:39 51°13.865 2°55.613 338.8 7.7 334 10.1
2003-03-25 09:18:43 51°13.873 2°55.606 338.8 7.8 335 10.1
2003-03-25 09:18:49 51°13.885 2°55.595 338.8 7.9 335 10
2003-03-25 09:18:53 51°13.893 2°55.589 338.9 8 335 10
2003-03-25 09:18:59 51°13.905 2°55.58 339.2 8 335 9.9
2003-03-25 09:19:04 51°13.915 2°55.572 339.1 8 336 10.1
2003-03-25 09:19:09 51°13.925 2°55.565 338.9 8 336 9
2003-03-25 09:19:13 51°13.932 2°55.559 338.6 8 335 10
2003-03-25 09:19:19 51°13.944 2°55.55 338.2 8 335 9.9
2003-03-25 09:19:24 51°13.954 2°55.542 337.9 8 334 10.1
2003-03-25 09:19:29 51°13.964 2°55.536 338.2 8 334 9.4
2003-03-25 09:19:32 51°13.97 2°55.531 338.9 8 335 9.7
2003-03-25 09:19:38 51°13.983 2°55.522 338.9 8 335 -999
2003-03-25 09:19:43 51°13.994 2°55.513 338.4 8 335 9.9
2003-03-25 09:19:49 51°14.006 2°55.503 337.8 8 334 9.9
2003-03-25 09:19:53 51°14.014 2°55.497 337.7 8 334 9.1
2003-03-25 09:19:59 51°14.026 2°55.488 337.9 8 334 9.2
2003-03-25 09:20:03 51°14.034 2°55.482 337.9 8 334 9.5
2003-03-25 09:20:09 51°14.046 2°55.472 337.8 8.1 334 9.6
2003-03-25 09:20:12 51°14.052 2°55.467 338.9 8.1 334 9.6
2003-03-25 09:20:19 51°14.066 2°55.456 340 8.1 335 9.6
2003-03-25 09:20:24 51°14.076 2°55.449 340.1 8.1 335 9.9
2003-03-25 09:20:29 51°14.086 2°55.441 339.8 8.1 335 9.9
2003-03-25 09:20:33 51°14.094 2°55.435 339.6 8.1 335 6.3
2003-03-25 09:20:39 51°14.106 2°55.427 340.4 8.2 335 5.3
2003-03-25 09:20:44 51°14.117 2°55.421 341.7 8.2 336 9.7
2003-03-25 09:20:49 51°14.127 2°55.415 342.3 8.2 337 9.5
2003-03-25 09:20:53 51°14.136 2°55.41 342.1 8.2 338 8.7
2003-03-25 09:20:59 51°14.149 2°55.401 341.3 8.3 337 9.3
2003-03-25 09:21:03 51°14.157 2°55.394 340.2 8.3 336 8
2003-03-25 09:21:09 51°14.169 2°55.384 338.9 8.3 335 9.9
2003-03-25 09:21:14 51°14.18 2°55.375 338.2 8.5 334 9.4
2003-03-25 09:21:19 51°14.191 2°55.366 338 8.7 333 9.4
2003-03-25 09:21:23 51°14.2 2°55.359 335.9 8.8 332 9.1
2003-03-25 09:21:29 51°14.212 2°55.345 332 8.9 329 9.7
2003-03-25 09:21:33 51°14.22 2°55.335 327.7 9 325 9.9
2003-03-25 09:21:39 51°14.232 2°55.32 323.9 9.1 321 7.7
2003-03-25 09:21:44 51°14.241 2°55.306 320.7 9.1 318 5.3
2003-03-25 09:21:49 51°14.25 2°55.292 317.8 9.2 315 9.6
2003-03-25 09:21:53 51°14.256 2°55.279 315.5 9.3 312 8.5
2003-03-25 09:21:59 51°14.266 2°55.259 313.5 9.4 310 9.6
2003-03-25 09:22:04 51°14.274 2°55.242 312.2 9.5 308 -999
2003-03-25 09:22:09 51°14.283 2°55.226 312.7 9.5 308 9.6
2003-03-25 09:22:13 51°14.29 2°55.213 314.4 9.6 309 9.9
2003-03-25 09:22:19 51°14.301 2°55.193 315.9 9.7 310 10.2
2003-03-25 09:22:24 51°14.31 2°55.177 316.4 9.7 311 10.1
2003-03-25 09:22:29 51°14.319 2°55.161 316.1 9.8 310 10.3
2003-03-25 09:22:33 51°14.326 2°55.148 316.2 9.9 310 8.6
2003-03-25 09:22:39 51°14.337 2°55.128 317.9 9.9 311 9.9
2003-03-25 09:22:44 51°14.346 2°55.112 320.8 9.8 313 9
2003-03-25 09:22:49 51°14.356 2°55.098 323.5 9.8 316 10.1
2003-03-25 09:22:53 51°14.365 2°55.087 325.1 9.8 319 10.3
2003-03-25 09:22:59 51°14.378 2°55.071 326.7 9.9 321 10.5
2003-03-25 09:23:03 51°14.387 2°55.061 328 9.9 322 10.3
2003-03-25 09:23:09 51°14.4 2°55.045 328.7 9.9 323 10.5
2003-03-25 09:23:12 51°14.406 2°55.037 329.4 9.9 323 10.5
2003-03-25 09:23:18 51°14.419 2°55.021 330.8 9.9 323 10.2
2003-03-25 09:23:24 51°14.432 2°55.006 332.6 9.8 324 10.3
2003-03-25 09:23:29 51°14.443 2°54.995 334.5 9.8 325 10
2003-03-25 09:23:33 51°14.452 2°54.986 336.6 9.8 326 9.9
2003-03-25 09:23:39 51°14.465 2°54.972 338.2 9.8 327 9.9
2003-03-25 09:23:43 51°14.474 2°54.963 338.7 9.8 328 9.9
2003-03-25 09:23:49 51°14.488 2°54.95 338.9 9.8 328 9.8
2003-03-25 09:23:53 51°14.497 2°54.94 338.9 9.8 328 9.7
2003-03-25 09:23:59 51°14.511 2°54.927 338.5 9.8 328 9.8
2003-03-25 09:24:03 51°14.52 2°54.918 338.1 9.8 328 9.7
2003-03-25 09:24:09 51°14.534 2°54.904 337.5 9.8 328 9.7
2003-03-25 09:24:12 51°14.541 2°54.897 337.4 9.8 327 9.7
2003-03-25 09:24:18 51°14.555 2°54.883 337.8 9.8 328 9.7
2003-03-25 09:24:24 51°14.569 2°54.869 338.5 9.8 328 9.7
2003-03-25 09:24:29 51°14.581 2°54.859 339.3 9.8 329 9.7
2003-03-25 09:24:33 51°14.59 2°54.85 339.6 9.8 330 9.6
2003-03-25 09:24:39 51°14.605 2°54.837 339.8 9.9 330 9.6
2003-03-25 09:24:43 51°14.615 2°54.828 339.9 10.1 330 9.7
2003-03-25 09:24:49 51°14.63 2°54.815 339.7 10.3 330 9.5
2003-03-25 09:24:52 51°14.637 2°54.808 339.6 10.5 330 9.5
2003-03-25 09:24:59 51°14.655 2°54.791 338.9 10.7 329 9.4
2003-03-25 09:25:03 51°14.665 2°54.78 338.3 10.9 329 9.4
2003-03-25 09:25:09 51°14.681 2°54.765 337.6 11.1 329 9.4
2003-03-25 09:25:13 51°14.692 2°54.754 337.3 11.3 328 9.3
2003-03-25 09:25:19 51°14.709 2°54.738 338.7 11.5 329 9.3
2003-03-25 09:25:24 51°14.723 2°54.726 339.7 11.7 330 9.4
2003-03-25 09:25:29 51°14.737 2°54.713 339.8 11.9 331 9.3
2003-03-25 09:25:33 51°14.749 2°54.704 339.7 12.1 331 9.2
2003-03-25 09:25:39 51°14.766 2°54.688 339.3 12.2 331 9.2
2003-03-25 09:25:43 51°14.778 2°54.678 338.9 12.3 330 9.1
2003-03-25 09:25:49 51°14.796 2°54.661 338.5 12.3 330 9.2
2003-03-25 09:25:53 51°14.808 2°54.65 338.5 12.3 330 9.2
2003-03-25 09:25:59 51°14.826 2°54.633 338.5 12.3 330 9.2
2003-03-25 09:26:04 51°14.841 2°54.62 338.6 12.4 330 9.2
2003-03-25 09:26:09 51°14.855 2°54.606 338.8 12.4 330 9.1
2003-03-25 09:26:13 51°14.867 2°54.596 338.9 12.5 331 9.3
2003-03-25 09:26:19 51°14.885 2°54.579 338.9 12.5 331 9.3
2003-03-25 09:26:24 51°14.9 2°54.566 338.8 12.5 331 9.1
2003-03-25 09:26:28 51°14.912 2°54.555 338.6 12.4 331 9.1
2003-03-25 09:26:33 51°14.927 2°54.542 338.8 12.4 331 9
2003-03-25 09:26:39 51°14.945 2°54.526 338.9 12.4 331 8.9
2003-03-25 09:26:43 51°14.957 2°54.515 338.9 12.4 331 8.7
2003-03-25 09:26:49 51°14.975 2°54.499 338.9 12.4 331 8.7
2003-03-25 09:26:53 51°14.987 2°54.488 338.6 12.4 331 8.6
2003-03-25 09:26:59 51°15.005 2°54.472 338.5 12.4 331 8.6
2003-03-25 09:27:02 51°15.014 2°54.464 338.5 12.3 331 8.5
2003-03-25 09:27:09 51°15.035 2°54.445 338.9 12.3 331 8.5
2003-03-25 09:27:13 51°15.047 2°54.434 338.9 12.3 331 8.5
2003-03-25 09:27:19 51°15.064 2°54.419 339 12.3 331 8.6
2003-03-25 09:27:23 51°15.076 2°54.409 339.1 12.3 331 8.4
2003-03-25 09:27:29 51°15.094 2°54.392 339.1 12.4 331 8.5
2003-03-25 09:27:33 51°15.106 2°54.382 339.1 12.4 331 8.5
2003-03-25 09:27:39 51°15.124 2°54.365 339.1 12.4 331 8.7
2003-03-25 09:27:42 51°15.133 2°54.357 339.1 12.4 331 8.7
2003-03-25 09:27:49 51°15.154 2°54.338 339 12.4 331 8.7
2003-03-25 09:27:53 51°15.166 2°54.327 339 12.4 331 8.8
2003-03-25 09:27:59 51°15.185 2°54.311 338.9 12.5 331 8.8
2003-03-25 09:28:03 51°15.197 2°54.3 338.9 12.5 331 8.8
2003-03-25 09:28:09 51°15.214 2°54.285 338.9 12.4 331 8.9
2003-03-25 09:28:12 51°15.223 2°54.277 338.9 12.4 331 9
2003-03-25 09:28:19 51°15.245 2°54.259 338.9 12.4 331 9
2003-03-25 09:28:24 51°15.26 2°54.246 339.1 12.4 331 9
2003-03-25 09:28:29 51°15.275 2°54.233 339.2 12.4 331 9.1
2003-03-25 09:28:33 51°15.287 2°54.223 339.2 12.4 331 9.2
2003-03-25 09:28:39 51°15.305 2°54.207 339.2 12.3 331 9.3
2003-03-25 09:28:43 51°15.317 2°54.196 339.1 12.3 331 9.3
2003-03-25 09:28:49 51°15.334 2°54.18 338.9 12.3 331 9.3
2003-03-25 09:28:53 51°15.346 2°54.17 339 12.4 331 9.4
2003-03-25 09:28:59 51°15.364 2°54.153 339 12.4 331 9.5
2003-03-25 09:29:03 51°15.376 2°54.142 338.9 12.5 330 9.5
2003-03-25 09:29:09 51°15.395 2°54.125 338.7 12.6 330 9.7
2003-03-25 09:29:12 51°15.404 2°54.116 338.8 12.7 330 9.8
2003-03-25 09:29:19 51°15.426 2°54.096 338.9 12.8 330 9.7
2003-03-25 09:29:23 51°15.438 2°54.085 339.2 12.9 331 9.8
2003-03-25 09:29:29 51°15.457 2°54.068 339.2 13 331 9.9
2003-03-25 09:29:33 51°15.47 2°54.057 339.2 13.2 331 9.9
2003-03-25 09:29:39 51°15.489 2°54.039 339.1 13.3 331 10
2003-03-25 09:29:43 51°15.503 2°54.028 339 13.4 331 10
2003-03-25 09:29:49 51°15.522 2°54.011 339.2 13.5 331 10.1
2003-03-25 09:29:52 51°15.532 2°54.002 339.4 13.5 331 10.1
2003-03-25 09:29:59 51°15.556 2°53.982 339.5 13.6 332 10.1
2003-03-25 09:30:04 51°15.572 2°53.967 339.3 13.7 331 10.2
2003-03-25 09:30:09 51°15.589 2°53.953 339.2 13.8 331 10.3
2003-03-25 09:30:13 51°15.603 2°53.941 338.9 13.8 331 10.4
2003-03-25 09:30:19 51°15.623 2°53.924 339 13.9 332 10.4
2003-03-25 09:30:24 51°15.64 2°53.909 339.1 14 331 10.5
2003-03-25 09:30:28 51°15.653 2°53.897 339.1 14 331 10.6
2003-03-25 09:30:33 51°15.671 2°53.882 338.9 14.1 331 10.7
2003-03-25 09:30:39 51°15.691 2°53.865 338.9 14.1 331 10.7
2003-03-25 09:30:44 51°15.708 2°53.849 338.9 14.1 331 10.8
2003-03-25 09:30:49 51°15.726 2°53.835 339.1 14.1 331 10.9
2003-03-25 09:30:53 51°15.739 2°53.823 338.7 14.1 331 11
2003-03-25 09:30:59 51°15.76 2°53.805 338.5 14.1 331 11
2003-03-25 09:31:04 51°15.777 2°53.789 338.2 14.1 330 11.1
2003-03-25 09:31:09 51°15.793 2°53.774 337.9 14.1 330 11.1
2003-03-25 09:31:13 51°15.807 2°53.761 337.5 14.2 330 11.1
2003-03-25 09:31:19 51°15.828 2°53.743 337.6 14.1 330 11.2
2003-03-25 09:31:23 51°15.841 2°53.73 338.2 14.1 331 11.3
2003-03-25 09:31:29 51°15.861 2°53.712 338.2 14.1 331 11.3
2003-03-25 09:31:33 51°15.875 2°53.7 338.2 14.1 331 11.3
2003-03-25 09:31:39 51°15.896 2°53.681 338.2 14.1 331 11.4
2003-03-25 09:31:43 51°15.909 2°53.669 338.1 14.1 330 11.4
2003-03-25 09:31:49 51°15.93 2°53.651 337.9 14.1 330 11.5
2003-03-25 09:31:53 51°15.943 2°53.639 337.9 14.1 330 11.6
2003-03-25 09:31:59 51°15.963 2°53.62 338.2 14.1 331 11.6
2003-03-25 09:32:04 51°15.98 2°53.605 338.2 14.2 331 11.6
2003-03-25 09:32:09 51°15.997 2°53.59 338.1 14.2 331 11.7
2003-03-25 09:32:14 51°16.015 2°53.574 337.9 14.2 330 11.8
2003-03-25 09:32:19 51°16.032 2°53.559 338.2 14.2 331 11.8
2003-03-25 09:32:23 51°16.046 2°53.546 338.3 14.2 331 11.8
2003-03-25 09:32:29 51°16.066 2°53.528 338.2 14.2 331 11.8
2003-03-25 09:32:33 51°16.08 2°53.516 338.2 14.1 331 11.9
2003-03-25 09:32:39 51°16.101 2°53.498 338.2 14.1 331 11.9
2003-03-25 09:32:43 51°16.114 2°53.486 338.1 14.1 331 12
2003-03-25 09:32:49 51°16.135 2°53.467 337.9 14.1 331 11.9
2003-03-25 09:32:52 51°16.145 2°53.458 338.1 14.1 331 12
2003-03-25 09:32:59 51°16.17 2°53.436 338.2 14.1 331 12
2003-03-25 09:33:04 51°16.187 2°53.42 337.8 14.1 330 12.1
2003-03-25 09:33:09 51°16.203 2°53.405 337.5 14.1 330 12
2003-03-25 09:33:13 51°16.217 2°53.393 337.2 14.1 330 12.1
2003-03-25 09:33:19 51°16.237 2°53.375 337.2 14.1 330 12.1
2003-03-25 09:33:24 51°16.253 2°53.36 336.9 14.1 329 12.2
2003-03-25 09:33:29 51°16.27 2°53.343 336.8 14.1 329 12.2
2003-03-25 09:33:33 51°16.284 2°53.33 337.1 14.1 330 12.2
2003-03-25 09:33:39 51°16.303 2°53.311 337.2 14.1 330 12.2
2003-03-25 09:33:44 51°16.32 2°53.296 337.2 14.2 330 12.2
2003-03-25 09:33:48 51°16.334 2°53.284 337.1 14.2 330 12.2
2003-03-25 09:33:54 51°16.354 2°53.266 336.9 14.1 330 12.2
2003-03-25 09:33:59 51°16.371 2°53.25 337.1 14.1 330 12.2
2003-03-25 09:34:04 51°16.388 2°53.235 337.3 14.1 330 12.2
2003-03-25 09:34:09 51°16.405 2°53.218 337.2 14.1 330 12.2
2003-03-25 09:34:13 51°16.418 2°53.206 337.2 14.1 330 12.2
2003-03-25 09:34:19 51°16.438 2°53.187 337.2 14.1 330 12.2
2003-03-25 09:34:23 51°16.452 2°53.175 337.2 14.1 330 12.1
2003-03-25 09:34:29 51°16.472 2°53.157 336.9 14.1 330 12.1
2003-03-25 09:34:33 51°16.486 2°53.145 337.1 14.1 330 12.1
2003-03-25 09:34:39 51°16.506 2°53.126 337.2 14.1 330 12
2003-03-25 09:34:43 51°16.519 2°53.114 337.2 14.1 330 12
2003-03-25 09:34:49 51°16.54 2°53.096 336.9 14.1 330 11.9
2003-03-25 09:34:53 51°16.554 2°53.083 337.2 14.1 330 11.7
2003-03-25 09:34:58 51°16.571 2°53.067 337.1 14.1 330 11.7
2003-03-25 09:35:04 51°16.592 2°53.048 337 14.1 330 11.7
2003-03-25 09:35:09 51°16.608 2°53.032 336.8 14.1 330 11.6
2003-03-25 09:35:13 51°16.622 2°53.019 336.9 14.1 330 11.5
2003-03-25 09:35:19 51°16.642 2°53.001 337 14.1 330 11.4
2003-03-25 09:35:23 51°16.656 2°52.988 337.3 14.1 330 11.3
2003-03-25 09:35:29 51°16.676 2°52.969 337.3 14.1 330 11.2
2003-03-25 09:35:32 51°16.687 2°52.96 337.3 14.1 330 10.9
2003-03-25 09:35:38 51°16.708 2°52.94 337 14.1 330 11
2003-03-25 09:35:44 51°16.728 2°52.921 337 14.1 330 10.7
2003-03-25 09:35:49 51°16.745 2°52.905 337.1 14 330 10.6
2003-03-25 09:35:53 51°16.759 2°52.893 337.2 14 330 10.3
2003-03-25 09:35:59 51°16.779 2°52.875 337.1 14 330 9.8
2003-03-25 09:36:03 51°16.792 2°52.862 337.3 13.9 330 9.3
2003-03-25 09:36:09 51°16.812 2°52.845 337.3 13.9 330 9.2
2003-03-25 09:36:13 51°16.824 2°52.833 337.3 13.8 330 9.2
2003-03-25 09:36:19 51°16.844 2°52.815 337 13.7 330 9.2
2003-03-25 09:36:23 51°16.857 2°52.803 336.8 13.7 330 9.2
2003-03-25 09:36:29 51°16.877 2°52.785 336.8 13.8 330 9
2003-03-25 09:36:33 51°16.89 2°52.773 337.2 13.8 330 9
2003-03-25 09:36:39 51°16.91 2°52.756 337.4 13.9 331 9.1
2003-03-25 09:36:44 51°16.927 2°52.741 337.5 13.8 331 9.3
2003-03-25 09:36:49 51°16.944 2°52.726 337.4 13.9 331 9.3
2003-03-25 09:36:53 51°16.957 2°52.714 337.3 13.9 331 9.5
2003-03-25 09:36:59 51°16.978 2°52.696 337.3 14 331 9.5
2003-03-25 09:37:04 51°16.995 2°52.681 337.2 14.1 331 9.9
2003-03-25 09:37:09 51°17.012 2°52.665 336.7 14.1 330 10
2003-03-25 09:37:13 51°17.025 2°52.652 336.7 14.2 330 10
2003-03-25 09:37:19 51°17.046 2°52.632 336.6 14.2 329 9.7
2003-03-25 09:37:24 51°17.063 2°52.617 336.7 14.2 329 9.4
2003-03-25 09:37:29 51°17.08 2°52.601 337.1 14.1 330 9.4
2003-03-25 09:37:33 51°17.093 2°52.589 337.4 14 330 9.4
2003-03-25 09:37:39 51°17.113 2°52.571 337.5 14 330 9.4
2003-03-25 09:37:42 51°17.123 2°52.562 337.5 13.9 330 9.4
2003-03-25 09:37:49 51°17.147 2°52.541 337.5 13.9 330 9.5
2003-03-25 09:37:53 51°17.16 2°52.528 337.5 14 330 9.6
2003-03-25 09:37:59 51°17.181 2°52.51 337.5 14 330 9.6
2003-03-25 09:38:04 51°17.198 2°52.494 338.1 14.1 331 9.7
2003-03-25 09:38:09 51°17.215 2°52.48 338.7 14.1 331 9.8
2003-03-25 09:38:13 51°17.229 2°52.468 340.2 14.1 332 9.8
2003-03-25 09:38:19 51°17.25 2°52.451 341 14.1 333 9.8
2003-03-25 09:38:22 51°17.261 2°52.443 342.5 14.1 335 9.9
2003-03-25 09:38:29 51°17.286 2°52.425 343.3 14.1 336 10.1
2003-03-25 09:38:33 51°17.3 2°52.416 344.6 14 337 10.1
2003-03-25 09:38:39 51°17.322 2°52.402 346.2 14 338 10.1
2003-03-25 09:38:43 51°17.337 2°52.395 347.1 14 340 10.2
2003-03-25 09:38:49 51°17.358 2°52.382 348 14 340 10.2
2003-03-25 09:38:53 51°17.373 2°52.374 348.7 14 341 10.2
2003-03-25 09:38:59 51°17.395 2°52.363 349.2 14 342 10.2
2003-03-25 09:39:03 51°17.41 2°52.355 350.5 14 342 10.2
2003-03-25 09:39:09 51°17.432 2°52.346 352 14 344 10.3
2003-03-25 09:39:13 51°17.447 2°52.338 353.1 14.1 344 10.1
2003-03-25 09:39:19 51°17.469 2°52.331 354.3 13.9 346 10.3
2003-03-25 09:39:23 51°17.484 2°52.326 355.7 13.9 348 10.4
2003-03-25 09:39:29 51°17.507 2°52.321 357 13.8 349 10.4
2003-03-25 09:39:34 51°17.525 2°52.315 358.1 13.8 350 10.2
2003-03-25 09:39:38 51°17.541 2°52.312 359 13.8 351 10.2
2003-03-25 09:39:44 51°17.563 2°52.307 0.2 13.8 352 10.3
2003-03-25 09:39:49 51°17.582 2°52.304 1.1 13.8 353 10.2
2003-03-25 09:39:54 51°17.601 2°52.302 2.1 13.8 355 10.2
2003-03-25 09:39:59 51°17.62 2°52.3 3.2 13.8 355 10.2
2003-03-25 09:40:03 51°17.635 2°52.299 3.9 13.7 357 10.1
2003-03-25 09:40:09 51°17.658 2°52.297 5 13.8 357 10.2
2003-03-25 09:40:13 51°17.673 2°52.297 5.3 13.7 358 10.1
2003-03-25 09:40:19 51°17.696 2°52.295 6.2 13.7 358 10.2
2003-03-25 09:40:24 51°17.715 2°52.295 6.5 13.7 359 10.2
2003-03-25 09:40:29 51°17.734 2°52.295 6.9 13.7 359 10.2
2003-03-25 09:40:33 51°17.749 2°52.294 7.1 13.7   10.2
2003-03-25 09:40:39 51°17.772 2°52.294 7.1 13.7   10.3
2003-03-25 09:40:44 51°17.791 2°52.294 6.8 13.7 359 10.3
2003-03-25 09:40:48 51°17.806 2°52.294 6.7 13.7 359 10.2
2003-03-25 09:40:54 51°17.829 2°52.293 6.6 13.7 359 10.3
2003-03-25 09:40:59 51°17.847 2°52.292 6.4 13.7 359 10.3
2003-03-25 09:41:04 51°17.867 2°52.292 6.5 13.7 359 10.3
2003-03-25 09:41:09 51°17.886 2°52.292 7.7 13.7   10.3
2003-03-25 09:41:13 51°17.901 2°52.293 10 13.7 2 10.2
2003-03-25 09:41:19 51°17.924 2°52.295 11.2 13.7 3 10.3
2003-03-25 09:41:23 51°17.939 2°52.298 14.5 13.6 6 10.3
2003-03-25 09:41:29 51°17.961 2°52.305 17.4 13.6 9 10.4
2003-03-25 09:41:32 51°17.972 2°52.308 19.5 13.6 12 10.4
2003-03-25 09:41:39 51°17.997 2°52.319 23.3 13.5 15 10.3
2003-03-25 09:41:44 51°18.015 2°52.33 27.8 13.5 20 10.4
2003-03-25 09:41:49 51°18.032 2°52.344 31.3 13.4 23 10.4
2003-03-25 09:41:53 51°18.045 2°52.354 34 13.4 27 10.4
2003-03-25 09:41:59 51°18.064 2°52.372 35.9 13.4 29 10.5
2003-03-25 09:42:03 51°18.077 2°52.384 38.2 13.4 31 10.5
2003-03-25 09:42:09 51°18.095 2°52.404 41.2 13.3 33 10.6
2003-03-25 09:42:13 51°18.107 2°52.418 43.2 13.3 36 10.5
2003-03-25 09:42:19 51°18.124 2°52.44 44.5 13.3 38 10.5
2003-03-25 09:42:23 51°18.135 2°52.456 47.9 13.3 41 10.6
2003-03-25 09:42:29 51°18.15 2°52.481 50.4 13.3 44 10.6
2003-03-25 09:42:33 51°18.161 2°52.498 52.8 13.3 46 10.6
2003-03-25 09:42:39 51°18.175 2°52.525 53.8 13.3 48 10.6
2003-03-25 09:42:44 51°18.187 2°52.548 56.6 13.2 50 10.7
2003-03-25 09:42:49 51°18.198 2°52.571 58.5 13.2 52 10.6
2003-03-25 09:42:53 51°18.206 2°52.591 60 13.2 54 10.7
2003-03-25 09:42:59 51°18.218 2°52.621 61.4 13.3 56 10.7
2003-03-25 09:43:03 51°18.226 2°52.641 63.9 13.3 59 10.8
2003-03-25 09:43:09 51°18.237 2°52.671 65.3 13.2 60 10.8
2003-03-25 09:43:13 51°18.244 2°52.691 66.8 13.2 62 10.7
2003-03-25 09:43:19 51°18.255 2°52.722 67.6 13.3 62 10.7
2003-03-25 09:43:23 51°18.262 2°52.743 68.2 13.4 63 10.8
2003-03-25 09:43:29 51°18.272 2°52.775 69.1 13.4 63 10.7
2003-03-25 09:43:33 51°18.278 2°52.796 69.2 13.3 64 10.8
2003-03-25 09:43:39 51°18.287 2°52.827 69.2 13.3 64 10.8
2003-03-25 09:43:43 51°18.293 2°52.849 68.2 13.3 64 10.8
2003-03-25 09:43:49 51°18.302 2°52.88 67.9 13.3 63 10.8
2003-03-25 09:43:53 51°18.309 2°52.901 67.3 13.2 62 10.8
2003-03-25 09:43:59 51°18.319 2°52.932 67.1 13.2 62 10.8
2003-03-25 09:44:04 51°18.327 2°52.958 66.5 13.2 62 10.8
2003-03-25 09:44:09 51°18.336 2°52.984 66.2 13.3 61 10.8
2003-03-25 09:44:13 51°18.343 2°53.005 66.1 13.3 61 10.8
2003-03-25 09:44:19 51°18.354 2°53.035 65.9 13.3 61 10.9
2003-03-25 09:44:23 51°18.361 2°53.055 65.9 13.2 61 10.9
2003-03-25 09:44:29 51°18.372 2°53.086 65.8 13.2 61 10.8
2003-03-25 09:44:32 51°18.378 2°53.102 65.3 13.3 60 10.8
2003-03-25 09:44:39 51°18.391 2°53.137 65.5 13.3 61 10.8
2003-03-25 09:44:43 51°18.398 2°53.157 65.2 13.3 60 10.8
2003-03-25 09:44:49 51°18.409 2°53.187 65.5 13.3 60 10.8
2003-03-25 09:44:53 51°18.416 2°53.208 65.6 13.3 61 10.9
2003-03-25 09:44:59 51°18.427 2°53.239 65.3 13.2 60 10.9
2003-03-25 09:45:03 51°18.435 2°53.26 65.3 13.3 60 10.9
2003-03-25 09:45:09 51°18.446 2°53.29 64.6 13.3 60 10.9
2003-03-25 09:45:13 51°18.454 2°53.31 64.6 13.3 60 10.9
2003-03-25 09:45:19 51°18.465 2°53.34 65 13.3 60 10.9
2003-03-25 09:45:24 51°18.474 2°53.365 64.7 13.3 60 10.9
2003-03-25 09:45:29 51°18.484 2°53.391 64.2 13.3 59 10.9
2003-03-25 09:45:33 51°18.492 2°53.411 64.3 13.3 59 10.9
2003-03-25 09:45:39 51°18.503 2°53.441 64.7 13.2 59 10.9
2003-03-25 09:45:43 51°18.51 2°53.461 65.3 13.2 60 10.9
2003-03-25 09:45:49 51°18.52 2°53.492 66 13.2 61 11
2003-03-25 09:45:54 51°18.529 2°53.517 66 13.3 61 11
2003-03-25 09:45:59 51°18.538 2°53.542 65.8 13.3 61 11
2003-03-25 09:46:03 51°18.544 2°53.564 65.2 13.3 60 10.9
2003-03-25 09:46:09 51°18.555 2°53.594 64.9 13.3 60 11
2003-03-25 09:46:13 51°18.563 2°53.615 64.9 13.3 60 10.9
2003-03-25 09:46:19 51°18.574 2°53.645 65 13.3 60 10.9
2003-03-25 09:46:24 51°18.583 2°53.67 65 13.3 60 10.9
2003-03-25 09:46:29 51°18.592 2°53.696 65 13.3 60 10.9
2003-03-25 09:46:33 51°18.6 2°53.717 64.9 13.3 59 10.9
2003-03-25 09:46:39 51°18.612 2°53.747 64.8 13.3 60 11
2003-03-25 09:46:44 51°18.622 2°53.773 64.6 13.3 59 11
2003-03-25 09:46:49 51°18.632 2°53.798 64.7 13.3 59 10.9
2003-03-25 09:46:53 51°18.64 2°53.819 65 13.4 59 11
2003-03-25 09:46:59 51°18.651 2°53.85 65 13.4 59 11
2003-03-25 09:47:04 51°18.659 2°53.875 65.4 13.3 60 11
2003-03-25 09:47:08 51°18.666 2°53.896 65.5 13.3 60 11
2003-03-25 09:47:14 51°18.677 2°53.928 65.5 13.4 60 11
2003-03-25 09:47:19 51°18.685 2°53.953 65.7 13.4 60 11
2003-03-25 09:47:24 51°18.694 2°53.978 65.8 13.3 61 11
2003-03-25 09:47:29 51°18.703 2°54.003 65.5 13.3 60 10.9
2003-03-25 09:47:33 51°18.71 2°54.024 65.5 13.3 60 10.9
2003-03-25 09:47:39 51°18.721 2°54.055 65.3 13.3 60 11
2003-03-25 09:47:43 51°18.729 2°54.075 65.3 13.3 60 11
2003-03-25 09:47:49 51°18.74 2°54.105 65.3 13.3 60 11
2003-03-25 09:47:53 51°18.747 2°54.125 65.3 13.3 60 11
2003-03-25 09:47:59 51°18.76 2°54.154 63.1 13.3 58 11
2003-03-25 09:48:03 51°18.768 2°54.174 62.1 13.3 57 11
2003-03-25 09:48:09 51°18.78 2°54.203 61.2 13.3 56 11.1
2003-03-25 09:48:13 51°18.789 2°54.222 60.6 13.3 55 11
2003-03-25 09:48:18 51°18.799 2°54.246 59.8 13.3 54 11.1
2003-03-25 09:48:24 51°18.812 2°54.275 59.3 13.3 54 11
2003-03-25 09:48:29 51°18.823 2°54.297 58.7 13.3 53 11.1
2003-03-25 09:48:33 51°18.832 2°54.316 58.4 13.3 53 11
2003-03-25 09:48:39 51°18.845 2°54.344 58.3 13.3 53 11
2003-03-25 09:48:43 51°18.854 2°54.363 58.2 13.3 53 11.1
2003-03-25 09:48:49 51°18.867 2°54.391 58.6 13.3 53 11.1
2003-03-25 09:48:54 51°18.879 2°54.414 58.8 13.3 53 11.1
2003-03-25 09:48:58 51°18.888 2°54.433 58.6 13.3 53 11.1
2003-03-25 09:49:04 51°18.901 2°54.461 58.4 13.3 53 11.1
2003-03-25 09:49:09 51°18.912 2°54.484 58.4 13.3 53 11.1
2003-03-25 09:49:13 51°18.921 2°54.503 58.7 13.3 53 11.1
2003-03-25 09:49:19 51°18.934 2°54.531 58.9 13.2 53 11.2
2003-03-25 09:49:23 51°18.943 2°54.55 58.8 13.3 53 11.1
2003-03-25 09:49:29 51°18.957 2°54.578 58.5 13.3 53 11.1
2003-03-25 09:49:32 51°18.963 2°54.592 59.1 13.3 53 11.1
2003-03-25 09:49:39 51°18.979 2°54.626 59.2 13.3 54 11.2
2003-03-25 09:49:42 51°18.985 2°54.64 59.3 13.3 53 11.2
2003-03-25 09:49:49 51°19 2°54.674 59.6 13.3 54 11.2
2003-03-25 09:49:53 51°19.009 2°54.692 59.6 13.3 54 11.2
2003-03-25 09:49:58 51°19.02 2°54.716 59.1 13.3 54 11.2
2003-03-25 09:50:01 51°19.027 2°54.729 59.1 13.3 53 11.2
2003-03-25 09:50:09 51°19.044 2°54.767 59.7 13.3 54 11.2
2003-03-25 09:50:14 51°19.056 2°54.79 58 13.6 53 11.2
2003-03-25 09:50:19 51°19.067 2°54.812 56.8 13.5 51 11.2
2003-03-25 09:50:24 51°19.079 2°54.834 54.9 13.3 50 11.2
2003-03-25 09:50:29 51°19.093 2°54.854 51.9 13.6 46 11.2
2003-03-25 09:50:34 51°19.107 2°54.875 48.7 13.8 42 11.2
2003-03-25 09:50:39 51°19.121 2°54.893 46.4 13.5 40 11.2
2003-03-25 09:50:43 51°19.132 2°54.907 44.1 13.3 37 11.4
2003-03-25 09:50:50 51°19.153 2°54.93 42.9 13.2 36 11.3
2003-03-25 09:50:54 51°19.166 2°54.943 41.3 13.2 35 11.3
2003-03-25 09:51:00 51°19.184 2°54.963 40.6 13.3 33 11.3
2003-03-25 09:51:04 51°19.197 2°54.976 39.2 13.4 33 11.5
2003-03-25 09:51:09 51°19.214 2°54.991 38.7 13.5 32 11.5
2003-03-25 09:51:14 51°19.23 2°55.006 37.9 13.4 31 11.4
2003-03-25 09:51:20 51°19.249 2°55.025 38 13.4 31 11.5
2003-03-25 09:51:24 51°19.262 2°55.036 37.8 13.5 30 11.6
2003-03-25 09:51:30 51°19.281 2°55.054 37.7 13.5 31 11.5
2003-03-25 09:51:34 51°19.294 2°55.066 37.8 13.5 30 11.5
2003-03-25 09:51:40 51°19.314 2°55.084 37.4 13.6 31 11.6
2003-03-25 09:51:44 51°19.326 2°55.095 37.4 13.5 30 11.6
2003-03-25 09:51:50 51°19.346 2°55.113 37.7 13.5 31 11.6
2003-03-25 09:51:54 51°19.359 2°55.125 37.9 13.5 31 11.6
2003-03-25 09:52:00 51°19.378 2°55.144 38.2 13.5 31 11.6
2003-03-25 09:52:04 51°19.391 2°55.156 37.9 13.6 31 11.6
2003-03-25 09:52:10 51°19.41 2°55.175 38 13.6 31 11.6
2003-03-25 09:52:14 51°19.423 2°55.187 38.1 13.5 31 11.6
2003-03-25 09:52:20 51°19.442 2°55.205 38.1 13.4 31 11.7
2003-03-25 09:52:25 51°19.458 2°55.219 37.7 13.4 30 11.7
2003-03-25 09:52:29 51°19.472 2°55.23 35 13.4 29 11.7
2003-03-25 09:52:34 51°19.489 2°55.243 33.1 13.5 26 11.7
2003-03-25 09:52:40 51°19.509 2°55.258 31.9 13.5 25 11.8
2003-03-25 09:52:44 51°19.523 2°55.266 30.5 13.5 23 11.7
2003-03-25 09:52:49 51°19.541 2°55.278 30 13.5 23 11.7
2003-03-25 09:52:54 51°19.558 2°55.289 28.8 13.5 22 11.8
2003-03-25 09:53:00 51°19.579 2°55.301 28.7 13.6 21 11.8
2003-03-25 09:53:04 51°19.593 2°55.31 28.3 13.6 21 11.8
2003-03-25 09:53:10 51°19.614 2°55.322 28 13.5 21 11.8
2003-03-25 09:53:15 51°19.632 2°55.332 27.6 13.6 20 11.9
2003-03-25 09:53:20 51°19.65 2°55.342 27.5 13.6 20 11.9
2003-03-25 09:53:25 51°19.668 2°55.351 25.4 13.6 18 11.9
2003-03-25 09:53:30 51°19.686 2°55.357 21.2 13.5 15 12
2003-03-25 09:53:34 51°19.701 2°55.36 15.8 13.4 10 11.9
2003-03-25 09:53:40 51°19.724 2°55.361 11 13.4 5 12
2003-03-25 09:53:44 51°19.739 2°55.36 8.8 13.5 1 12
2003-03-25 09:53:50 51°19.761 2°55.358 6.4 13.5 359 12
2003-03-25 09:53:53 51°19.772 2°55.357 4.7 13.6 357 12
2003-03-25 09:54:00 51°19.799 2°55.352 3.2 13.6 355 12.1
2003-03-25 09:54:05 51°19.818 2°55.349 2.1 13.7 355 12.1
2003-03-25 09:54:10 51°19.836 2°55.344 1 13.8 353 12.2
2003-03-25 09:54:14 51°19.851 2°55.341 0.5 13.8 353 12.2
2003-03-25 09:54:20 51°19.874 2°55.336 0.9 13.8 352 12.2
2003-03-25 09:54:25 51°19.893 2°55.334 1.9 13.7 354 12.3
2003-03-25 09:54:30 51°19.912 2°55.331 2.6 13.8 354 12.3
2003-03-25 09:54:34 51°19.927 2°55.329 3.3 13.8 355 12.3
2003-03-25 09:54:38 51°19.943 2°55.326 3.6 13.9 356 12.4
2003-03-25 09:54:45 51°19.97 2°55.323 3.8 13.9 356 12.4
2003-03-25 09:54:50 51°19.989 2°55.321 4.3 13.8 356 12.5
2003-03-25 09:54:54 51°20.005 2°55.32 4.3 13.8 356 12.4
2003-03-25 09:55:00 51°20.028 2°55.316 4 13.8 356 12.5
2003-03-25 09:55:05 51°20.048 2°55.313 3.9 13.8 356 12.6
2003-03-25 09:55:10 51°20.067 2°55.312 3.9 13.9 356 12.6
2003-03-25 09:55:14 51°20.082 2°55.311 4.2 13.8 356 12.5
2003-03-25 09:55:20 51°20.105 2°55.308 4.1 13.8 356 12.6
2003-03-25 09:55:24 51°20.12 2°55.305 3.9 13.8 356 12.7
2003-03-25 09:55:30 51°20.143 2°55.303 4.2 13.8 356 12.7
2003-03-25 09:55:34 51°20.158 2°55.302 4.1 13.9 356 12.7
2003-03-25 09:55:40 51°20.182 2°55.301 4.1 13.9 356 12.7
2003-03-25 09:55:44 51°20.197 2°55.299 4 13.9 356 12.8
2003-03-25 09:55:50 51°20.219 2°55.296 3.9 13.8 356 12.8
2003-03-25 09:55:54 51°20.235 2°55.293 3.7 13.8 356 12.8
2003-03-25 09:56:00 51°20.257 2°55.29 4 13.8 356 12.9
2003-03-25 09:56:04 51°20.272 2°55.289 4.1 13.8 356 12.9
2003-03-25 09:56:10 51°20.295 2°55.286 4.2 13.8 356 13
2003-03-25 09:56:14 51°20.311 2°55.284 4 13.8 356 13.1
2003-03-25 09:56:20 51°20.334 2°55.282 3.9 13.8 356 13.1
2003-03-25 09:56:25 51°20.353 2°55.279 3.8 13.8 356 13.1
2003-03-25 09:56:30 51°20.372 2°55.277 4.1 13.8 356 13.4
2003-03-25 09:56:34 51°20.387 2°55.275 4.1 13.8 356 13.3
2003-03-25 09:56:40 51°20.41 2°55.272 4.3 13.8 356 13.5
2003-03-25 09:56:45 51°20.429 2°55.269 4.2 13.8 356 13.4
2003-03-25 09:56:49 51°20.444 2°55.268 4.1 13.8 356 13.6
2003-03-25 09:56:54 51°20.464 2°55.266 4 13.9 356 13.5
2003-03-25 09:57:00 51°20.487 2°55.264 4.1 13.8 356 13.6
2003-03-25 09:57:05 51°20.506 2°55.262 4.2 13.9 355 13.7
2003-03-25 09:57:10 51°20.525 2°55.26 4.3 13.9 356 13.9
2003-03-25 09:57:14 51°20.54 2°55.258 4.3 13.9 356 13.8
2003-03-25 09:57:20 51°20.563 2°55.255 4.3 13.9 356 13.9
2003-03-25 09:57:24 51°20.579 2°55.254 4.1 13.9 356 14
2003-03-25 09:57:30 51°20.602 2°55.251 3.8 13.9 356 14.1
2003-03-25 09:57:34 51°20.618 2°55.25 4.2 13.9 356 14.2
2003-03-25 09:57:38 51°20.633 2°55.249 4.4 13.9 356 14.3
2003-03-25 09:57:43 51°20.653 2°55.246 4.3 13.9 356 14.4
2003-03-25 09:57:49 51°20.676 2°55.245 4.3 13.9 356 14.4
2003-03-25 09:57:53 51°20.691 2°55.242 4.4 13.9 356 14.5
2003-03-25 09:57:58 51°20.71 2°55.24 4.5 13.8 355 14.6
2003-03-25 09:58:04 51°20.734 2°55.237 4.3 13.8 355 14.8
2003-03-25 09:58:09 51°20.752 2°55.233 4.3 13.9 356 14.8
2003-03-25 09:58:14 51°20.771 2°55.231 4.2 13.9 356 14.9
2003-03-25 09:58:19 51°20.791 2°55.229 4.1 14 356 15
2003-03-25 09:58:23 51°20.807 2°55.228 4 14 356 15.1
2003-03-25 09:58:29 51°20.829 2°55.226 4.3 14 356 15.2
2003-03-25 09:58:33 51°20.845 2°55.225 4.6 14 356 15.3
2003-03-25 09:58:38 51°20.864 2°55.223 4.4 14 357 15.4
2003-03-25 09:58:44 51°20.888 2°55.221 4.3 14 356 15.5
2003-03-25 09:58:49 51°20.907 2°55.219 4.1 14 357 15.5
2003-03-25 09:58:53 51°20.922 2°55.217 4.3 14 356 15.6
2003-03-25 09:58:59 51°20.946 2°55.215 4.6 14 357 15.6
2003-03-25 09:59:04 51°20.965 2°55.213 4.7 14 357 15.7
2003-03-25 09:59:09 51°20.985 2°55.212 4.6 14 358 15.9
2003-03-25 09:59:14 51°21.004 2°55.21 4.3 14 357 15.9
2003-03-25 09:59:19 51°21.024 2°55.209 4 14 357 16
2003-03-25 09:59:24 51°21.043 2°55.207 3.9 14 356 16
2003-03-25 09:59:29 51°21.063 2°55.206 3.9 14 356 16.1
2003-03-25 09:59:33 51°21.078 2°55.203 4 14 356 16.2
2003-03-25 09:59:38 51°21.097 2°55.201 4.3 14 357 16.3
2003-03-25 09:59:44 51°21.12 2°55.199 4.3 14 357 16.3
2003-03-25 09:59:49 51°21.14 2°55.197 4.1 14 357 16.3
2003-03-25 09:59:54 51°21.159 2°55.196 4 14 356 16.4
2003-03-25 09:59:59 51°21.178 2°55.194 4.3 14 357 16.4
2003-03-25 10:00:04 51°21.197 2°55.192 4.4 14 357 16.5
2003-03-25 10:00:09 51°21.217 2°55.19 4.2 14 356 16.5
2003-03-25 10:00:14 51°21.236 2°55.188 4.1 14 356 16.5
2003-03-25 10:00:19 51°21.255 2°55.187 4.1 14 357 16.6
2003-03-25 10:00:25 51°21.279 2°55.185 4.2 14 357 16.7
2003-03-25 10:00:29 51°21.294 2°55.184 4.2 14 357 16.6
2003-03-25 10:00:34 51°21.313 2°55.181 4 14 356 16.7
2003-03-25 10:00:40 51°21.336 2°55.178 4 14 356 16.7
2003-03-25 10:00:44 51°21.352 2°55.176 4 14 356 16.7
2003-03-25 10:00:48 51°21.367 2°55.174 4 14 356 16.8
2003-03-25 10:00:54 51°21.39 2°55.172 4 14 356 16.8
2003-03-25 10:00:59 51°21.41 2°55.17 4 14 356 16.8
2003-03-25 10:01:04 51°21.429 2°55.168 4 14 356 16.8
2003-03-25 10:01:09 51°21.449 2°55.166 4 14 356 16.9
2003-03-25 10:01:14 51°21.468 2°55.164 4 14 356 16.8
2003-03-25 10:01:18 51°21.484 2°55.162 3.9 14 356 16.9
2003-03-25 10:01:24 51°21.507 2°55.16 4.1 14 356 16.9
2003-03-25 10:01:29 51°21.527 2°55.158 4.2 14 356 16.9
2003-03-25 10:01:34 51°21.546 2°55.156 4.1 14 356 16.9
2003-03-25 10:01:39 51°21.565 2°55.154 4 14 356 16.9
2003-03-25 10:01:44 51°21.585 2°55.152 4.2 14 356 16.9
2003-03-25 10:01:50 51°21.608 2°55.15 4.4 14 357 17
2003-03-25 10:01:54 51°21.623 2°55.149 4.5 14 357 17
2003-03-25 10:01:58 51°21.639 2°55.147 4.4 14 357 17
2003-03-25 10:02:04 51°21.662 2°55.144 4.3 14 357 17
2003-03-25 10:02:09 51°21.682 2°55.143 4.3 14 357 17
2003-03-25 10:02:14 51°21.701 2°55.141 4.5 14 357 17
2003-03-25 10:02:19 51°21.72 2°55.139 4.6 14.1 357 17
2003-03-25 10:02:24 51°21.74 2°55.138 4.4 14 357 17
2003-03-25 10:02:28 51°21.756 2°55.137 4.4 14.1 357 17.1
2003-03-25 10:02:34 51°21.779 2°55.135 4.5 14.1 357 17
2003-03-25 10:02:38 51°21.795 2°55.134 4.5 14.1 357 17.1
2003-03-25 10:02:45 51°21.822 2°55.131 4.3 14.1 357 17.1
2003-03-25 10:02:49 51°21.838 2°55.13 4.2 14.1 357 17.1
2003-03-25 10:02:53 51°21.853 2°55.129 4.3 14.1 357 17.1
2003-03-25 10:02:58 51°21.873 2°55.127 4.3 14.1 357 17.2
2003-03-25 10:03:04 51°21.896 2°55.125 4.3 14.1 357 17.1
2003-03-25 10:03:09 51°21.916 2°55.124 4.1 14.1 357 17.2
2003-03-25 10:03:14 51°21.936 2°55.123 4.1 14.2 357 17.2
2003-03-25 10:03:18 51°21.952 2°55.122 4.3 14.2 357 17.2
2003-03-25 10:03:24 51°21.975 2°55.119 4.5 14.2 357 17.2
2003-03-25 10:03:29 51°21.995 2°55.117 4.4 14.2 357 17.3
2003-03-25 10:03:34 51°22.014 2°55.116 4.3 14.2 357 17.4
2003-03-25 10:03:39 51°22.034 2°55.113 4.3 14.2 357 17.5
2003-03-25 10:03:44 51°22.053 2°55.112 4.3 14.2 357 17.6
2003-03-25 10:03:49 51°22.073 2°55.11 4.3 14.2 358 17.9
2003-03-25 10:03:54 51°22.092 2°55.111 6.8 14.1   18.2
2003-03-25 10:04:00 51°22.116 2°55.114 10.1 14.1 2 18.3
2003-03-25 10:04:05 51°22.135 2°55.118 11.9 14.1 5 18.3
2003-03-25 10:04:10 51°22.155 2°55.122 14.4 14 7 18.2
2003-03-25 10:04:14 51°22.17 2°55.126 15.8 14 8 18.4
2003-03-25 10:04:20 51°22.193 2°55.131 17.1 14.1 10 18.4
2003-03-25 10:04:25 51°22.212 2°55.138 18.1 14 10 18.3
2003-03-25 10:04:30 51°22.231 2°55.144 18.6 14 11 18.4
2003-03-25 10:04:35 51°22.25 2°55.152 19.6 14 12 18.4
2003-03-25 10:04:40 51°22.269 2°55.159 20 14 13 18.6
2003-03-25 10:04:45 51°22.287 2°55.167 20.8 14 13 18.7
2003-03-25 10:04:50 51°22.306 2°55.175 21 14 14 18.5
2003-03-25 10:04:54 51°22.321 2°55.181 21.2 14 14 18.3
2003-03-25 10:05:00 51°22.344 2°55.189 21 14 14 18.4
2003-03-25 10:05:05 51°22.363 2°55.196 20.9 14 14 18.1
2003-03-25 10:05:10 51°22.381 2°55.203 21 14 14 17.7
2003-03-25 10:05:14 51°22.397 2°55.209 20.5 14 14 18
2003-03-25 10:05:20 51°22.42 2°55.218 20.6 14 14 18
2003-03-25 10:05:25 51°22.438 2°55.225 20.7 14 14 17.8
2003-03-25 10:05:30 51°22.457 2°55.232 20.7 14 14 17.7
2003-03-25 10:05:34 51°22.472 2°55.238 20.7 14 14 17.8
2003-03-25 10:05:40 51°22.495 2°55.246 20.8 14 14 17.7
2003-03-25 10:05:45 51°22.514 2°55.253 20.6 14 14 17.9
2003-03-25 10:05:50 51°22.533 2°55.261 20.3 14.1 14 17.9
2003-03-25 10:05:54 51°22.548 2°55.266 20.2 14 13 17.9
2003-03-25 10:06:00 51°22.571 2°55.274 20.2 14 13 18
2003-03-25 10:06:05 51°22.59 2°55.281 20.2 14 13 18.1
2003-03-25 10:06:10 51°22.609 2°55.289 20.5 14 13 18
2003-03-25 10:06:14 51°22.624 2°55.294 20.6 14 14 18
2003-03-25 10:06:20 51°22.647 2°55.302 20.3 14 13 18.2
2003-03-25 10:06:25 51°22.666 2°55.309 20.1 14 13 18.3
2003-03-25 10:06:30 51°22.685 2°55.315 19.8 14 12 18.2
2003-03-25 10:06:34 51°22.7 2°55.321 19.9 14 12 18.2
2003-03-25 10:06:40 51°22.723 2°55.329 20.3 14 13 18.2
2003-03-25 10:06:45 51°22.741 2°55.336 20.3 13.9 13 18.3
2003-03-25 10:06:51 51°22.764 2°55.344 20 13.9 13 18.3
2003-03-25 10:06:55 51°22.779 2°55.349 19.8 14 12 18.3
2003-03-25 10:06:59 51°22.794 2°55.355 20.2 13.9 13 18.4
2003-03-25 10:07:05 51°22.817 2°55.363 20.2 13.9 13 18.5
2003-03-25 10:07:10 51°22.836 2°55.369 20.2 13.9 13 18.5
2003-03-25 10:07:15 51°22.854 2°55.375 19.8 13.9 12 18.5
2003-03-25 10:07:19 51°22.869 2°55.38 19.8 13.9 12 18.5
2003-03-25 10:07:25 51°22.892 2°55.388 19.8 13.9 12 18.6
2003-03-25 10:07:29 51°22.907 2°55.393 19.8 13.9 12 18.7
2003-03-25 10:07:34 51°22.925 2°55.399 19.7 13.9 12 18.8
2003-03-25 10:07:40 51°22.948 2°55.406 19.6 13.9 12 18.8
2003-03-25 10:07:45 51°22.967 2°55.413 19.8 13.8 12 18.8
2003-03-25 10:07:51 51°22.989 2°55.421 20.1 13.9 12 18.8
2003-03-25 10:07:55 51°23.004 2°55.427 20.1 13.9 12 18.7
2003-03-25 10:08:01 51°23.027 2°55.434 19.6 13.8 12 18.7
2003-03-25 10:08:06 51°23.046 2°55.44 19.6 13.8 12 18.5
2003-03-25 10:08:11 51°23.064 2°55.447 19.6 13.8 12 18.8
2003-03-25 10:08:15 51°23.079 2°55.452 19.7 13.8 12 18.8
2003-03-25 10:08:20 51°23.098 2°55.458 20.1 13.7 12 18.8
2003-03-25 10:08:26 51°23.12 2°55.465 19.7 13.7 12 18.8
2003-03-25 10:08:31 51°23.139 2°55.471 19.7 13.8 12 18.9
2003-03-25 10:08:36 51°23.158 2°55.478 19.6 13.8 12 18.9
2003-03-25 10:08:40 51°23.173 2°55.482 19.6 13.8 12 19
2003-03-25 10:08:46 51°23.196 2°55.49 19.6 13.8 12 19.1
2003-03-25 10:08:49 51°23.207 2°55.494 19.6 13.9 12 19.2
2003-03-25 10:08:56 51°23.233 2°55.502 19.5 13.9 12 19
2003-03-25 10:09:01 51°23.251 2°55.508 19.5 13.8 12 18.8
2003-03-25 10:09:06 51°23.27 2°55.514 19.5 13.8 11 18.7
2003-03-25 10:09:10 51°23.285 2°55.518 19.6 13.8 12 18.7
2003-03-25 10:09:15 51°23.304 2°55.524 19.7 13.7 11 18.5
2003-03-25 10:09:19 51°23.319 2°55.529 19.7 13.7 12 18.3
2003-03-25 10:09:26 51°23.345 2°55.538 19.8 13.7 12 18.5
2003-03-25 10:09:30 51°23.36 2°55.544 19.7 13.7 12 18
2003-03-25 10:09:35 51°23.379 2°55.55 19.3 13.7 12 18
2003-03-25 10:09:40 51°23.397 2°55.556 19.7 13.8 12 18.1
2003-03-25 10:09:46 51°23.419 2°55.563 20.2 13.7 13 18.3
2003-03-25 10:09:50 51°23.434 2°55.568 19.9 13.7 13 17.5
2003-03-25 10:09:55 51°23.453 2°55.574 18.1 13.8 12 15.8
2003-03-25 10:10:00 51°23.472 2°55.58 18.1 13.9 12 18.3
2003-03-25 10:10:05 51°23.49 2°55.587 18.8 13.9 12 17.6
2003-03-25 10:10:10 51°23.509 2°55.593 19 13.8 12 16.6
2003-03-25 10:10:15 51°23.528 2°55.6 19.3 13.9 12 15.6
2003-03-25 10:10:19 51°23.543 2°55.605 19.5 13.8 13 18.4
2003-03-25 10:10:25 51°23.566 2°55.613 19.5 13.8 12 17.8
2003-03-25 10:10:30 51°23.585 2°55.62 19.5 13.8 12 17
2003-03-25 10:10:35 51°23.603 2°55.626 19.3 13.8 12 15.8
2003-03-25 10:10:39 51°23.619 2°55.632 19.3 13.9 12 16
2003-03-25 10:10:45 51°23.641 2°55.639 19.1 13.9 13 18
2003-03-25 10:10:50 51°23.659 2°55.645 19.2 13.9 12 17.6
2003-03-25 10:10:55 51°23.678 2°55.651 19.3 13.9 12 16.6
2003-03-25 10:11:00 51°23.696 2°55.658 19.6 13.9 13 14.5
2003-03-25 10:11:05 51°23.715 2°55.664 19.4 13.9 12 16
2003-03-25 10:11:10 51°23.734 2°55.671 19.1 13.8 12 16.7
2003-03-25 10:11:15 51°23.754 2°55.677 18.2 13.8 12 17.7
2003-03-25 10:11:20 51°23.772 2°55.681 17 13.9 10 17.7
2003-03-25 10:11:25 51°23.791 2°55.685 16.1 13.9 9 16.9
2003-03-25 10:11:29 51°23.806 2°55.688 15.3 13.8 8 15.7
2003-03-25 10:11:35 51°23.828 2°55.692 14.7 13.8 8 17.8
2003-03-25 10:11:40 51°23.847 2°55.696 14.5 13.8 7 17.4
2003-03-25 10:11:45 51°23.867 2°55.7 14.3 13.8 7 16.8
2003-03-25 10:11:50 51°23.886 2°55.703 14 13.9 7 18.4
2003-03-25 10:11:55 51°23.905 2°55.706 13.8 14 6 17.1
2003-03-25 10:11:59 51°23.92 2°55.709 14 13.9 7 18.5
2003-03-25 10:12:05 51°23.943 2°55.714 14.1 13.9 7 19.8
2003-03-25 10:12:10 51°23.962 2°55.717 13.8 13.8 6 19.7
2003-03-25 10:12:15 51°23.981 2°55.719 12.8 13.9 5 19.5
2003-03-25 10:12:20 51°24.001 2°55.721 11.5 13.9 4 19.4
2003-03-25 10:12:25 51°24.02 2°55.722 10.5 13.9 3 20
2003-03-25 10:12:30 51°24.039 2°55.722 8.4 13.9 1 20.4
2003-03-25 10:12:35 51°24.059 2°55.722 7.6 13.8   20.8
2003-03-25 10:12:39 51°24.075 2°55.721 6.1 13.9 358 20.9
2003-03-25 10:12:45 51°24.098 2°55.72 5.5 13.9 358 21.1
2003-03-25 10:12:50 51°24.117 2°55.718 4.3 13.9 357 21.3
2003-03-25 10:12:55 51°24.136 2°55.716 4.2 13.9 357 21.4
2003-03-25 10:13:00 51°24.155 2°55.712 3.7 14 356 21.5
2003-03-25 10:13:06 51°24.178 2°55.709 3.5 14 356 21.7
2003-03-25 10:13:10 51°24.194 2°55.707 3.4 14.1 356 21.8
2003-03-25 10:13:14 51°24.209 2°55.704 3.2 14.1 356 22.3
2003-03-25 10:13:20 51°24.232 2°55.701 3.4 14.1 356 22.4
2003-03-25 10:13:25 51°24.252 2°55.7 3.4 14.1 356 22.7
2003-03-25 10:13:30 51°24.272 2°55.698 3.6 14.2 356 23
2003-03-25 10:13:35 51°24.291 2°55.695 3.4 14.2 356 22.9
2003-03-25 10:13:40 51°24.311 2°55.693 3.4 14.2 356 22.9
2003-03-25 10:13:45 51°24.33 2°55.691 3.4 14.2 356 23
2003-03-25 10:13:50 51°24.35 2°55.689 3.4 14.1 356 23.2
2003-03-25 10:13:55 51°24.37 2°55.687 3.6 14.1 356 23.5
2003-03-25 10:14:01 51°24.393 2°55.684 3.6 14.2 356 23.6
2003-03-25 10:14:05 51°24.409 2°55.683 3.6 14.2 356 23.7
2003-03-25 10:14:10 51°24.429 2°55.68 3.5 14.3 356 23.7
2003-03-25 10:14:15 51°24.449 2°55.678 3.6 14.3 356 23.8
2003-03-25 10:14:19 51°24.464 2°55.676 3.6 14.2 356 23.8
2003-03-25 10:14:26 51°24.493 2°55.673 2.4 14.2 356 23.9
2003-03-25 10:14:30 51°24.508 2°55.669 359.3 14.2 353 23.9
2003-03-25 10:14:35 51°24.528 2°55.663 356.8 14.2 350 24
2003-03-25 10:14:39 51°24.544 2°55.658 354.7 14.3 349 23.9
2003-03-25 10:14:45 51°24.566 2°55.648 352.9 14.1 346 24
2003-03-25 10:14:50 51°24.585 2°55.64 351.7 14.1 344 24
2003-03-25 10:14:55 51°24.604 2°55.63 350.2 14.1 343 23.9
2003-03-25 10:14:59 51°24.619 2°55.621 348 14.2 341 23.8
2003-03-25 10:15:05 51°24.64 2°55.608 346.7 14.2 340 23.8
2003-03-25 10:15:10 51°24.659 2°55.596 345.3 14.2 339 23.7
2003-03-25 10:15:15 51°24.676 2°55.583 344.6 14.2 338 23.6
2003-03-25 10:15:20 51°24.693 2°55.568 342.9 14.2 337 23.4
2003-03-25 10:15:25 51°24.711 2°55.554 341.2 14.3 335 23.2
2003-03-25 10:15:30 51°24.729 2°55.541 340.3 14.3 334 23.1
2003-03-25 10:15:35 51°24.745 2°55.525 339.5 14.3 332 22.7
2003-03-25 10:15:39 51°24.759 2°55.513 338.9 14.2 332 22.6
2003-03-25 10:15:45 51°24.78 2°55.494 338.3 14.2 331 22.4
2003-03-25 10:15:50 51°24.797 2°55.478 338.7 14.1 331 22.2
2003-03-25 10:15:55 51°24.814 2°55.464 338.9 14.1 331 22.2
2003-03-25 10:15:59 51°24.828 2°55.452 339 14.2 332 22.1
2003-03-25 10:16:05 51°24.849 2°55.435 339 14.2 332 21.7
2003-03-25 10:16:10 51°24.867 2°55.42 339.1 14.1 331 21.6
2003-03-25 10:16:15 51°24.884 2°55.404 338.9 14.2 331 21.3
2003-03-25 10:16:20 51°24.901 2°55.389 338.6 14.2 331 20.9
2003-03-25 10:16:25 51°24.918 2°55.374 338.2 14.2 331 20.6
2003-03-25 10:16:30 51°24.935 2°55.358 338.3 14.1 331 20.2
2003-03-25 10:16:35 51°24.951 2°55.342 338.3 14.1 330 20
2003-03-25 10:16:39 51°24.965 2°55.329 338.4 14.1 330 19.7
2003-03-25 10:16:45 51°24.985 2°55.312 338.9 14 330 19.3
2003-03-25 10:16:50 51°25.003 2°55.297 339 14.1 331 19
2003-03-25 10:16:55 51°25.02 2°55.282 338.6 14.1 331 18.6
2003-03-25 10:17:00 51°25.038 2°55.268 339.1 14.2 331 18.7
2003-03-25 10:17:05 51°25.055 2°55.252 338.7 14.2 331 18.5
2003-03-25 10:17:10 51°25.072 2°55.237 338.9 14.2 331 18.4
2003-03-25 10:17:15 51°25.09 2°55.221 338.4 14.3 331 18.4
2003-03-25 10:17:19 51°25.104 2°55.21 339.3 14.2 332 17.9
2003-03-25 10:17:25 51°25.125 2°55.191 338.5 14.4 332 18.1
2003-03-25 10:17:30 51°25.142 2°55.177 339 14.3 332 18.4
2003-03-25 10:17:35 51°25.159 2°55.161 338.9 14.2 331 18.2
2003-03-25 10:17:39 51°25.173 2°55.149 338.9 14.2 331 17.8
2003-03-25 10:17:45 51°25.194 2°55.131 339.5 14.3 332 17.7
2003-03-25 10:17:50 51°25.211 2°55.116 339.2 14.4 332 17.8
2003-03-25 10:17:55 51°25.228 2°55.101 339.4 14.3 333 17.9
2003-03-25 10:17:59 51°25.242 2°55.089 339.4 14.3 332 18.2
2003-03-25 10:18:05 51°25.263 2°55.072 339.5 14.3 332 18.2
2003-03-25 10:18:10 51°25.281 2°55.057 339.4 14.3 332 18.2
2003-03-25 10:18:15 51°25.299 2°55.043 339.3 14.4 333 17.4
2003-03-25 10:18:20 51°25.316 2°55.028 339.3 14.4 333 15.9
2003-03-25 10:18:25 51°25.333 2°55.012 339.3 14.4 333 17.1
2003-03-25 10:18:30 51°25.351 2°54.997 339.1 14.3 332 17.5
2003-03-25 10:18:35 51°25.368 2°54.982 339.3 14.3 332 17.7
2003-03-25 10:18:39 51°25.382 2°54.971 339.7 14.3 333 17.4
2003-03-25 10:18:45 51°25.403 2°54.953 339.7 14.3 333 17.3
2003-03-25 10:18:50 51°25.421 2°54.939 339.8 14.2 332 17.2
2003-03-25 10:18:55 51°25.438 2°54.924 339.6 14.1 332 17.2
2003-03-25 10:18:59 51°25.452 2°54.912 339.4 14.2 332 17.3
2003-03-25 10:19:05 51°25.473 2°54.894 339.7 14.2 332 17.4
2003-03-25 10:19:10 51°25.491 2°54.879 339.6 14.2 332 17.5
2003-03-25 10:19:15 51°25.509 2°54.866 339.7 14.2 333 17.6
2003-03-25 10:19:20 51°25.527 2°54.853 340 14.3 333 17.8
2003-03-25 10:19:25 51°25.545 2°54.838 339.7 14.2 333 18
2003-03-25 10:19:30 51°25.561 2°54.823 339.6 14.2 333 18.2
2003-03-25 10:19:35 51°25.576 2°54.805 339.6 14.2 332 18.5
2003-03-25 10:19:40 51°25.593 2°54.79 339.6 14.2 332 18.7
2003-03-25 10:19:45 51°25.611 2°54.776 339.5 14.2 333 18.9
2003-03-25 10:19:50 51°25.628 2°54.761 339.4 14.2 332 18.8
2003-03-25 10:19:55 51°25.645 2°54.746 339.6 14.2 333 19.1
2003-03-25 10:19:59 51°25.659 2°54.734 339.7 14.2 333 19.6
2003-03-25 10:20:05 51°25.68 2°54.717 339.5 14.2 332 19.9
2003-03-25 10:20:10 51°25.697 2°54.702 339.5 14.1 332 20.2
2003-03-25 10:20:15 51°25.716 2°54.689 339.8 14.2 333 20.5
2003-03-25 10:20:20 51°25.734 2°54.675 339.9 14.2 333 20.7
2003-03-25 10:20:25 51°25.752 2°54.661 339.8 14.2 333 21.1
2003-03-25 10:20:30 51°25.769 2°54.647 339.9 14.2 333 21.5
2003-03-25 10:20:35 51°25.787 2°54.633 339.9 14.2 333 21.7
2003-03-25 10:20:39 51°25.801 2°54.621 339.9 14.2 333 22
2003-03-25 10:20:45 51°25.822 2°54.604 339.8 14.2 333 22.5
2003-03-25 10:20:50 51°25.84 2°54.59 339.7 14.2 333 22.3
2003-03-25 10:20:55 51°25.857 2°54.575 339.6 14.2 333 22.8
2003-03-25 10:21:00 51°25.875 2°54.561 339.6 14.2 333 22.9
2003-03-25 10:21:05 51°25.893 2°54.547 339.9 14.3 333 23.1
2003-03-25 10:21:10 51°25.911 2°54.533 339.8 14.3 333 23.1
2003-03-25 10:21:15 51°25.928 2°54.518 339.8 14.3 333 23.3
2003-03-25 10:21:20 51°25.946 2°54.504 339.6 14.3 333 23.3
2003-03-25 10:21:25 51°25.964 2°54.491 339.6 14.3 333 23.3
2003-03-25 10:21:30 51°25.982 2°54.476 339.8 14.3 333 23.3
2003-03-25 10:21:35 51°25.999 2°54.462 339.9 14.2 333 23
2003-03-25 10:21:40 51°26.017 2°54.447 340 14.2 333 23
2003-03-25 10:21:45 51°26.034 2°54.433 340 14.2 333 22.8
2003-03-25 10:21:50 51°26.052 2°54.419 339.8 14.3 333 22.7
2003-03-25 10:21:55 51°26.07 2°54.404 339.7 14.3 333 22.3
2003-03-25 10:22:00 51°26.088 2°54.39 340.2 14.3 333 22.1
2003-03-25 10:22:05 51°26.105 2°54.375 339.7 14.3 333 21.4
2003-03-25 10:22:10 51°26.123 2°54.361 339.7 14.3 333 21.1
2003-03-25 10:22:15 51°26.14 2°54.346 340.1 14.3 332 20.9
2003-03-25 10:22:21 51°26.161 2°54.328 340 14.2 332 21.1
2003-03-25 10:22:25 51°26.176 2°54.317 340.3 14.2 332 21.6
2003-03-25 10:22:37 51°26.226 2°54.292 339.7 1.3 334 23.3
2003-03-25 10:22:41 51°26.241 2°54.281 339.8 4.9 333 23.3
2003-03-25 10:22:46 51°26.259 2°54.267 340.2 12.5 333 23.4
2003-03-25 10:22:51 51°26.277 2°54.252 340.1 14.5 333 23.6
2003-03-25 10:22:55 51°26.291 2°54.242 339.9 14.8 333 24.5
2003-03-25 10:23:06 51°26.332 2°54.212 340.3 5.8 334 25.6
2003-03-25 10:23:10 51°26.343 2°54.197 340.2 7.6 333 26.1
2003-03-25 10:23:15 51°26.362 2°54.185 340 11.6 333 26.8
2003-03-25 10:23:19 51°26.377 2°54.174 339.6 14.5 333 27.2
2003-03-25 10:23:25 51°26.397 2°54.155 340.1 14.7 333 28
2003-03-25 10:23:30 51°26.415 2°54.141 340.1 14.4 333 28.5
2003-03-25 10:23:35 51°26.432 2°54.127 339.9 14.2 333 29.2
2003-03-25 10:23:40 51°26.45 2°54.114 339.9 14.2 333 30.1
2003-03-25 10:23:45 51°26.468 2°54.099 340.3 14.2 334 30.9
2003-03-25 10:23:50 51°26.486 2°54.086 340.2 14.2 334 31.5
2003-03-25 10:23:55 51°26.504 2°54.071 339.7 14.2 333 32
2003-03-25 10:23:59 51°26.518 2°54.06 339.9 14.2 333 32
2003-03-25 10:24:06 51°26.541 2°54.038 339.9 14.2 333 32.1
2003-03-25 10:24:10 51°26.555 2°54.027 339.8 14.2 333 31.9
2003-03-25 10:24:15 51°26.573 2°54.013 340.2 14.3 334 31.9
2003-03-25 10:24:20 51°26.591 2°54 340.5 14.2 334 31.6
2003-03-25 10:24:25 51°26.608 2°53.985 340.4 14.2 334 31.5
2003-03-25 10:24:30 51°26.624 2°53.97 340 14.1 333 31.7
2003-03-25 10:24:35 51°26.642 2°53.955 340 14.1 333 31.6
2003-03-25 10:24:40 51°26.659 2°53.94 340.2 14.2 333 31.4
2003-03-25 10:24:45 51°26.676 2°53.926 340.3 14.2 333 31.3
2003-03-25 10:24:50 51°26.693 2°53.911 340 14.2 333 31.3
2003-03-25 10:24:55 51°26.71 2°53.896 339.8 14.2 333 31.2
2003-03-25 10:24:59 51°26.724 2°53.885 340.1 14.2 333 30.7
2003-03-25 10:25:05 51°26.745 2°53.867 340.3 14.2 333 30.2
2003-03-25 10:25:10 51°26.763 2°53.853 340.2 14.2 333 29.6
2003-03-25 10:25:15 51°26.78 2°53.838 339.8 14.3 333 28.7
2003-03-25 10:25:19 51°26.794 2°53.826 339.8 14.3 333 27.8
2003-03-25 10:25:26 51°26.818 2°53.805 339.9 14.2 332 26.8
2003-03-25 10:25:30 51°26.83 2°53.796 340 14.2 332 25.9
2003-03-25 10:25:35 51°26.846 2°53.781 340.4 14.2 333 25.5
2003-03-25 10:25:39 51°26.862 2°53.769 340.4 14.3 333 25.8
2003-03-25 10:25:45 51°26.886 2°53.755 340.4 14.3 334 26.3
2003-03-25 10:25:50 51°26.905 2°53.742 340.4 14.3 334 26.7
2003-03-25 10:25:55 51°26.923 2°53.728 340.2 14.3 333 26.6
2003-03-25 10:25:59 51°26.938 2°53.717 340.1 14.3 333 26.4
2003-03-25 10:26:05 51°26.96 2°53.701 340.5 14.2 334 26.2
2003-03-25 10:26:10 51°26.978 2°53.687 340.6 14.3 334 26.1
2003-03-25 10:26:15 51°26.996 2°53.673 340.4 14.3 334 25.9
2003-03-25 10:26:19 51°27.01 2°53.661 340.1 14.3 334 25.7
2003-03-25 10:26:25 51°27.031 2°53.643 340.4 14.3 334 25.5
2003-03-25 10:26:30 51°27.049 2°53.629 340.5 14.3 334 25.5
2003-03-25 10:26:35 51°27.067 2°53.615 340.4 14.4 334 25.6
2003-03-25 10:26:39 51°27.081 2°53.604 340 14.4 334 25.5
2003-03-25 10:26:45 51°27.103 2°53.586 339.8 14.4 333 25.4
2003-03-25 10:26:50 51°27.121 2°53.572 339.8 14.4 333 25.3
2003-03-25 10:26:55 51°27.139 2°53.558 340.2 14.4 333 25.4
2003-03-25 10:26:59 51°27.153 2°53.546 340.4 14.4 333 25.5
2003-03-25 10:27:05 51°27.175 2°53.528 340.4 14.3 333 25.5
2003-03-25 10:27:10 51°27.193 2°53.514 340.2 14.4 333 25.3
2003-03-25 10:27:15 51°27.211 2°53.5 340.1 14.4 333 25.3
2003-03-25 10:27:20 51°27.229 2°53.486 340.4 14.4 333 25.2
2003-03-25 10:27:25 51°27.246 2°53.471 340.6 14.4 333 25.5
2003-03-25 10:27:30 51°27.264 2°53.456 340.4 14.3 333 27.1
2003-03-25 10:27:35 51°27.281 2°53.442 340.4 14.3 333 27.4
2003-03-25 10:27:39 51°27.295 2°53.43 340.4 14.3 333 24.3
2003-03-25 10:27:45 51°27.317 2°53.412 340.2 14.3 333 26.6
2003-03-25 10:27:50 51°27.335 2°53.399 340.2 14.4 333 27.4
2003-03-25 10:27:55 51°27.353 2°53.385 340.4 14.3 333 27.1
2003-03-25 10:28:00 51°27.37 2°53.37 340.5 14.3 333 26.4
2003-03-25 10:28:06 51°27.392 2°53.354 340.6 14.3 333 25.5
2003-03-25 10:28:10 51°27.406 2°53.342 340.3 14.3 333 24.9
2003-03-25 10:28:15 51°27.423 2°53.327 339.7 14.4 333 23.4
2003-03-25 10:28:20 51°27.441 2°53.312 339.7 14.3 332 21.6
2003-03-25 10:28:25 51°27.458 2°53.298 340.2 14.2 332 21.9
2003-03-25 10:28:30 51°27.475 2°53.282 340 14.2 332 22.5
2003-03-25 10:28:35 51°27.493 2°53.268 339.9 14.2 332 21.8
2003-03-25 10:28:40 51°27.51 2°53.253 339.9 14.2 332 21.4
2003-03-25 10:28:45 51°27.527 2°53.238 340.4 14.3 333 19.8
2003-03-25 10:28:50 51°27.545 2°53.224 340.7 14.3 333 18.9
2003-03-25 10:28:55 51°27.563 2°53.21 340.3 14.3 333 20.1
2003-03-25 10:29:00 51°27.58 2°53.195 340.2 14.2 333 20.6
2003-03-25 10:29:05 51°27.598 2°53.181 340.8 14.2 333 19.1
2003-03-25 10:29:10 51°27.615 2°53.166 340.8 14.3 333 20
2003-03-25 10:29:15 51°27.633 2°53.151 340.2 14.3 332 20.5
2003-03-25 10:29:21 51°27.653 2°53.132 338.6 14.3 331 20.9
2003-03-25 10:29:25 51°27.665 2°53.117 334.8 14.3 327 20.5
2003-03-25 10:29:30 51°27.681 2°53.099 332.5 14.3 325 19.2
2003-03-25 10:29:35 51°27.697 2°53.078 330.1 14.3 323 20
2003-03-25 10:29:39 51°27.709 2°53.062 328.5 14.3 321 20.5
2003-03-25 10:29:45 51°27.727 2°53.036 325.1 14.4 319 20.6
2003-03-25 10:29:50 51°27.741 2°53.013 323.5 14.4 316 20.4
2003-03-25 10:29:55 51°27.753 2°52.989 321.4 14.4 314 19.5
2003-03-25 10:29:59 51°27.764 2°52.97 318.6 14.5 312 18.8
2003-03-25 10:30:05 51°27.778 2°52.939 315.2 14.5 310 18.2
2003-03-25 10:30:10 51°27.79 2°52.913 313.7 14.5 307 18.9
2003-03-25 10:30:15 51°27.801 2°52.886 310.6 14.5 305 18.9
2003-03-25 10:30:19 51°27.808 2°52.863 306.4 14.5 301 19.4
2003-03-25 10:30:25 51°27.819 2°52.829 303.9 14.5 299 20.5
2003-03-25 10:30:30 51°27.828 2°52.8 301.6 14.5 297 21.1
2003-03-25 10:30:35 51°27.835 2°52.77 299 14.5 295 21.4
2003-03-25 10:30:40 51°27.841 2°52.739 294.8 14.5 292 21.3
2003-03-25 10:30:45 51°27.845 2°52.707 290.1 14.5 287 19.1
2003-03-25 10:30:50 51°27.848 2°52.676 286.5 14.5 283 20.5
2003-03-25 10:30:55 51°27.85 2°52.644 283.6 14.5 280 21.3
2003-03-25 10:30:59 51°27.852 2°52.618 281.4 14.5 277 21.5
2003-03-25 10:31:05 51°27.854 2°52.58 279.1 14.5 276 19.2
2003-03-25 10:31:10 51°27.855 2°52.547 278 14.5 274 20.7
2003-03-25 10:31:15 51°27.855 2°52.515 276.5 14.5 273 20.9
2003-03-25 10:31:19 51°27.856 2°52.489 275.6 14.6 272 20.6
2003-03-25 10:31:25 51°27.857 2°52.451 275.2 14.6 271 19.9
2003-03-25 10:31:30 51°27.857 2°52.419 274.3 14.6 271 19.5
2003-03-25 10:31:35 51°27.857 2°52.387 273.7 14.5 270 21.4
2003-03-25 10:31:39 51°27.856 2°52.362 270.7 14.5 268 21.5
2003-03-25 10:31:45 51°27.854 2°52.323 269.2 14.5 266 20.8
2003-03-25 10:31:49 51°27.852 2°52.297 268.2 14.6 264 21.1
2003-03-25 10:31:55 51°27.849 2°52.258 266.7 14.6 263 19.1
2003-03-25 10:31:59 51°27.847 2°52.232 266.2 14.5 263 21.2
2003-03-25 10:32:05 51°27.843 2°52.193 265 14.5 262 21.1
2003-03-25 10:32:10 51°27.84 2°52.16 264.7 14.6 261 21.1
2003-03-25 10:32:15 51°27.837 2°52.128 264.5 14.6 261 19.4
2003-03-25 10:32:21 51°27.833 2°52.089 264.2 14.6 260 21.1
2003-03-25 10:32:25 51°27.83 2°52.064 264.1 14.6 260 21.3
2003-03-25 10:32:30 51°27.828 2°52.031 264.7 14.6 261 20.6
2003-03-25 10:32:35 51°27.824 2°52 264.8 14.6 261 20.3
2003-03-25 10:32:40 51°27.821 2°51.968 264.9 14.6 261 18.4
2003-03-25 10:32:45 51°27.818 2°51.935 265.3 14.7 261 21.6
2003-03-25 10:32:49 51°27.815 2°51.909 265.9 14.7 262 21.4
2003-03-25 10:32:55 51°27.812 2°51.871 267 14.7 262 21
2003-03-25 10:32:59 51°27.811 2°51.845 267.8 14.6 264 20.9